Time;durP1;ratioP1;P1;durP2;ratioP2;P2;SDS_P1;SDS_P2;PMS_P1;PMS_P2;Temp;Humidity;BMP_temperature;BMP_pressure;BME280_temperature;BME280_humidity;BME280_pressure;Samples;Min_cycle;Max_cycle;Signal;HPM_P1;HPM_P2
2023/04/04 00:00:28;;;;;;;;;;;1.40;99.90;;;;;;5016084;28;20032;-73
2023/04/04 00:02:54;;;;;;;;;;;2.40;99.90;;;;;;4997821;28;19921;-72
2023/04/04 00:05:19;;;;;;;;;;;2.40;99.90;;;;;;5016116;28;19921;-72
2023/04/04 00:07:46;;;;;;;;;;;2.40;99.90;;;;;;5029344;28;20008;-72
2023/04/04 00:10:11;;;;;;;;;;;2.40;99.90;;;;;;4999907;28;20568;-72
2023/04/04 00:12:37;;;;;;;;;;;3.10;99.90;;;;;;5017928;28;19999;-72
2023/04/04 00:15:03;;;;;;;;;;;2.30;99.90;;;;;;5022294;28;19925;-72
2023/04/04 00:17:28;;;;;;;;;;;2.30;99.90;;;;;;4997256;28;19917;-72
2023/04/04 00:19:56;;;;;;;;;;;2.30;99.90;;;;;;5015998;28;20400;-72
2023/04/04 00:22:21;;;;;;;;;;;2.30;99.90;;;;;;4997917;28;19921;-72
2023/04/04 00:24:47;;;;;;;;;;;2.20;99.90;;;;;;5005708;28;19917;-72
2023/04/04 00:27:13;;;;;;;;;;;2.20;99.90;;;;;;5017654;28;19925;-72
2023/04/04 00:29:38;;;;;;;;;;;2.20;99.90;;;;;;5016648;28;19928;-72
2023/04/04 00:32:04;;;;;;;;;;;2.10;99.90;;;;;;5035595;28;19920;-70
2023/04/04 00:34:30;;;;;;;;;;;2.10;99.90;;;;;;5032631;28;19983;-69
2023/04/04 00:36:55;;;;;;;;;;;2.20;99.90;;;;;;5034373;28;19917;-70
2023/04/04 00:39:22;;;;;;;;;;;2.00;99.90;;;;;;5017287;28;19921;-70
2023/04/04 00:41:51;;;;;;;;;;;2.10;99.90;;;;;;5017426;28;19963;-70
2023/04/04 00:44:17;;;;;;;;;;;2.00;99.90;;;;;;5033957;28;20344;-69
2023/04/04 00:46:42;;;;;;;;;;;2.00;99.90;;;;;;5011191;28;19929;-70
2023/04/04 00:49:08;;;;;;;;;;;2.00;99.90;;;;;;5004496;28;20373;-69
2023/04/04 00:51:34;;;;;;;;;;;1.90;99.90;;;;;;5034197;28;19921;-70
2023/04/04 00:54:00;;;;;;;;;;;1.90;99.90;;;;;;5035303;28;19921;-70
2023/04/04 00:56:27;;;;;;;;;;;1.90;99.90;;;;;;5016224;28;19935;-70
2023/04/04 00:58:53;;;;;;;;;;;1.80;99.90;;;;;;5034562;28;19925;-70
2023/04/04 01:01:19;;;;;;;;;;;1.80;99.90;;;;;;5007558;28;19928;-69
2023/04/04 01:03:45;;;;;;;;;;;1.80;99.90;;;;;;5020559;28;19921;-70
2023/04/04 01:06:10;;;;;;;;;;;1.80;99.90;;;;;;5021805;28;19921;-70
2023/04/04 01:08:39;;;;;;;;;;;1.70;99.90;;;;;;5022823;28;20294;-70
2023/04/04 01:11:07;;;;;;;;;;;1.70;99.90;;;;;;5041371;28;19921;-70
2023/04/04 01:13:33;;;;;;;;;;;1.60;99.90;;;;;;5021005;28;20382;-70
2023/04/04 01:16:00;;;;;;;;;;;1.60;99.90;;;;;;5039697;28;20339;-70
2023/04/04 01:18:26;;;;;;;;;;;1.60;99.90;;;;;;5022835;28;20265;-71
2023/04/04 01:21:01;;;;;;;;;;;1.90;99.90;;;;;;5039408;28;20365;-70
2023/04/04 01:23:43;;;;;;;;;;;1.50;99.90;;;;;;5021089;28;19922;-71
2023/04/04 01:26:09;;;;;;;;;;;1.40;99.90;;;;;;5017540;28;20377;-70
2023/04/04 01:28:35;;;;;;;;;;;1.40;99.90;;;;;;5019810;28;19921;-69
2023/04/04 01:31:05;;;;;;;;;;;1.40;99.90;;;;;;5010503;28;20388;-70
2023/04/04 01:33:35;;;;;;;;;;;1.60;99.90;;;;;;5018825;28;19970;-70
2023/04/04 01:36:09;;;;;;;;;;;1.30;99.90;;;;;;5018785;28;20024;-71
2023/04/04 01:38:40;;;;;;;;;;;1.30;99.90;;;;;;5019110;28;20011;-72
2023/04/04 01:41:13;;;;;;;;;;;1.20;99.90;;;;;;5009815;28;19922;-72
2023/04/04 01:43:39;;;;;;;;;;;1.90;99.90;;;;;;5005224;28;19921;-72
2023/04/04 01:46:05;;;;;;;;;;;1.20;99.90;;;;;;5001237;28;20369;-72
2023/04/04 01:48:31;;;;;;;;;;;1.20;99.90;;;;;;5003376;28;20015;-71
2023/04/04 01:50:57;;;;;;;;;;;1.10;99.90;;;;;;5010692;28;19960;-72
2023/04/04 01:53:22;;;;;;;;;;;1.10;99.90;;;;;;5012273;28;20384;-71
2023/04/04 01:55:48;;;;;;;;;;;1.10;99.90;;;;;;5017927;28;19921;-72
2023/04/04 01:58:13;;;;;;;;;;;1.10;99.90;;;;;;5003033;28;19925;-72
2023/04/04 02:00:39;;;;;;;;;;;1.10;99.90;;;;;;4996467;28;19921;-72
2023/04/04 02:03:04;;;;;;;;;;;1.00;99.90;;;;;;4995769;28;19921;-71
2023/04/04 02:05:30;;;;;;;;;;;1.00;99.90;;;;;;5013705;28;19927;-71
2023/04/04 02:07:58;;;;;;;;;;;1.00;99.90;;;;;;5015196;28;20284;-71
2023/04/04 02:10:24;;;;;;;;;;;1.30;99.90;;;;;;5033343;28;19921;-72
2023/04/04 02:12:52;;;;;;;;;;;1.00;99.90;;;;;;5016103;28;19943;-72
2023/04/04 02:15:18;;;;;;;;;;;0.90;99.90;;;;;;5015173;28;20000;-71
2023/04/04 02:17:47;;;;;;;;;;;0.90;99.90;;;;;;5033525;28;19924;-72
2023/04/04 02:20:13;;;;;;;;;;;0.90;99.90;;;;;;5015668;28;20003;-71
2023/04/04 02:22:39;;;;;;;;;;;0.90;99.90;;;;;;5013992;28;19968;-71
2023/04/04 02:25:04;;;;;;;;;;;0.90;99.90;;;;;;5015644;28;19921;-71
2023/04/04 02:27:30;;;;;;;;;;;1.00;99.90;;;;;;5015287;28;19928;-71
2023/04/04 02:29:55;;;;;;;;;;;1.00;99.90;;;;;;5023626;28;20026;-71
2023/04/04 02:32:22;;;;;;;;;;;1.00;99.90;;;;;;4995781;28;19988;-71
2023/04/04 02:34:47;;;;;;;;;;;1.00;99.90;;;;;;4996144;28;19921;-71
2023/04/04 02:37:13;;;;;;;;;;;1.00;99.90;;;;;;5007970;28;19999;-71
2023/04/04 02:39:39;;;;;;;;;;;0.90;99.90;;;;;;5015167;28;19921;-71
2023/04/04 02:42:04;;;;;;;;;;;0.90;99.90;;;;;;5015753;28;19927;-71
2023/04/04 02:44:30;;;;;;;;;;;0.90;99.90;;;;;;5014206;28;19921;-71
2023/04/04 02:46:56;;;;;;;;;;;0.80;99.90;;;;;;5004782;28;19965;-70
2023/04/04 02:49:22;;;;;;;;;;;0.80;99.90;;;;;;4995424;28;20258;-70
2023/04/04 02:51:47;;;;;;;;;;;0.80;99.90;;;;;;4994929;28;19921;-70
2023/04/04 02:54:13;;;;;;;;;;;0.80;99.90;;;;;;5013089;28;19928;-70
2023/04/04 02:56:38;;;;;;;;;;;1.30;99.90;;;;;;5014093;28;19969;-70
2023/04/04 02:59:04;;;;;;;;;;;0.80;99.90;;;;;;5020733;28;19925;-71
2023/04/04 03:01:29;;;;;;;;;;;0.90;99.90;;;;;;5014778;28;19917;-71
2023/04/04 03:03:55;;;;;;;;;;;1.40;99.90;;;;;;5015164;28;19921;-70
2023/04/04 03:06:21;;;;;;;;;;;0.80;99.90;;;;;;5032157;28;19917;-71
2023/04/04 03:08:46;;;;;;;;;;;0.80;99.90;;;;;;5014997;28;19921;-71
2023/04/04 03:11:15;;;;;;;;;;;0.80;99.90;;;;;;5032078;28;19921;-70
2023/04/04 03:13:41;;;;;;;;;;;1.50;99.90;;;;;;4994884;28;19926;-70
2023/04/04 03:16:06;;;;;;;;;;;0.80;99.90;;;;;;4995825;28;19943;-70
2023/04/04 03:18:33;;;;;;;;;;;0.90;99.90;;;;;;4995951;28;19969;-70
2023/04/04 03:20:59;;;;;;;;;;;0.80;99.90;;;;;;4999606;28;19927;-70
2023/04/04 03:23:24;;;;;;;;;;;0.80;99.90;;;;;;4999144;28;20012;-71
2023/04/04 03:25:50;;;;;;;;;;;0.80;99.90;;;;;;4998350;28;19928;-71
2023/04/04 03:28:16;;;;;;;;;;;0.80;99.90;;;;;;5012621;28;19924;-70
2023/04/04 03:30:41;;;;;;;;;;;0.80;99.90;;;;;;5008827;28;19966;-70
2023/04/04 03:33:08;;;;;;;;;;;1.30;99.90;;;;;;5018324;28;19921;-71
2023/04/04 03:35:38;;;;;;;;;;;0.80;99.90;;;;;;5018606;28;19964;-70
2023/04/04 03:38:09;;;;;;;;;;;0.80;99.90;;;;;;5024724;28;20313;-71
2023/04/04 03:40:35;;;;;;;;;;;0.70;99.90;;;;;;5021967;28;20280;-70
2023/04/04 03:43:01;;;;;;;;;;;0.70;99.90;;;;;;5018645;28;19936;-70
2023/04/04 03:45:33;;;;;;;;;;;0.60;99.90;;;;;;5018323;28;19921;-70
2023/04/04 03:47:58;;;;;;;;;;;0.60;99.90;;;;;;5007973;28;19922;-70
2023/04/04 03:50:24;;;;;;;;;;;0.60;99.90;;;;;;5015757;28;19925;-70
2023/04/04 03:52:50;;;;;;;;;;;0.50;99.90;;;;;;4998929;28;19975;-70
2023/04/04 03:55:15;;;;;;;;;;;0.50;99.90;;;;;;4997741;28;19921;-70
2023/04/04 03:57:41;;;;;;;;;;;0.50;99.90;;;;;;5017289;28;19921;-70
2023/04/04 04:00:07;;;;;;;;;;;0.50;99.90;;;;;;5017419;28;19921;-70
2023/04/04 04:02:32;;;;;;;;;;;0.40;99.90;;;;;;5034912;28;20001;-71
2023/04/04 04:04:58;;;;;;;;;;;0.40;99.90;;;;;;5035814;28;19947;-71
2023/04/04 04:07:23;;;;;;;;;;;0.40;99.90;;;;;;5035395;28;19932;-71
2023/04/04 04:09:49;;;;;;;;;;;0.40;99.90;;;;;;5034727;28;19927;-70
2023/04/04 04:12:14;;;;;;;;;;;0.70;99.90;;;;;;5022029;28;20000;-70
2023/04/04 04:14:40;;;;;;;;;;;0.30;99.90;;;;;;5012765;28;19928;-70
2023/04/04 04:17:06;;;;;;;;;;;0.50;99.90;;;;;;5017175;28;19928;-71
2023/04/04 04:19:31;;;;;;;;;;;0.30;99.90;;;;;;5035359;28;19921;-70
2023/04/04 04:21:57;;;;;;;;;;;0.30;99.90;;;;;;5034595;28;20373;-70
2023/04/04 04:24:23;;;;;;;;;;;0.30;99.90;;;;;;5035020;28;20070;-70
2023/04/04 04:26:48;;;;;;;;;;;0.30;99.90;;;;;;5017877;28;19975;-70
2023/04/04 04:29:15;;;;;;;;;;;0.40;99.90;;;;;;5033940;28;20027;-70
2023/04/04 04:31:51;;;;;;;;;;;0.40;99.90;;;;;;5035130;28;19933;-70
2023/04/04 04:34:17;;;;;;;;;;;0.40;99.90;;;;;;5017846;28;19921;-70
2023/04/04 04:36:43;;;;;;;;;;;0.40;99.90;;;;;;5024146;28;19933;-70
2023/04/04 04:39:08;;;;;;;;;;;0.40;99.90;;;;;;5015333;28;19928;-70
2023/04/04 04:41:34;;;;;;;;;;;0.30;99.90;;;;;;4997476;28;19921;-70
2023/04/04 04:43:59;;;;;;;;;;;0.40;99.90;;;;;;4997116;28;20328;-70
2023/04/04 04:46:25;;;;;;;;;;;0.40;99.90;;;;;;4999069;28;19918;-70
2023/04/04 04:48:50;;;;;;;;;;;1.10;99.90;;;;;;5015200;28;20365;-70
2023/04/04 04:51:16;;;;;;;;;;;0.80;99.90;;;;;;5014514;28;20349;-70
2023/04/04 04:53:42;;;;;;;;;;;0.40;99.90;;;;;;5014704;28;19921;-70
2023/04/04 04:56:07;;;;;;;;;;;0.40;99.90;;;;;;5016003;28;19987;-70
2023/04/04 04:58:33;;;;;;;;;;;0.30;99.90;;;;;;4996163;28;19929;-70
2023/04/04 05:00:58;;;;;;;;;;;0.30;99.90;;;;;;4997152;28;19961;-70
2023/04/04 05:03:30;;;;;;;;;;;0.30;99.90;;;;;;4997237;28;20008;-70
2023/04/04 05:05:56;;;;;;;;;;;0.30;99.90;;;;;;5014711;28;20441;-70
2023/04/04 05:08:22;;;;;;;;;;;0.20;99.90;;;;;;5011822;28;20435;-71
2023/04/04 05:10:48;;;;;;;;;;;0.30;99.90;;;;;;5022024;28;19922;-71
2023/04/04 05:13:17;;;;;;;;;;;0.30;99.90;;;;;;5014680;28;19922;-70
2023/04/04 05:15:46;;;;;;;;;;;0.30;99.90;;;;;;5014766;28;19922;-71
2023/04/04 05:18:12;;;;;;;;;;;0.30;99.90;;;;;;5014152;28;19917;-70
2023/04/04 05:20:37;;;;;;;;;;;1.50;99.90;;;;;;4996556;28;20455;-71
2023/04/04 05:23:03;;;;;;;;;;;0.30;99.90;;;;;;4997046;28;20381;-70
2023/04/04 05:25:28;;;;;;;;;;;0.40;99.90;;;;;;4999668;28;19917;-71
2023/04/04 05:27:55;;;;;;;;;;;0.40;99.90;;;;;;5016524;28;20341;-73
2023/04/04 05:30:20;;;;;;;;;;;0.90;99.90;;;;;;5033984;28;19925;-71
2023/04/04 05:32:49;;;;;;;;;;;0.40;99.90;;;;;;5008759;28;19993;-73
2023/04/04 05:35:15;;;;;;;;;;;0.40;99.90;;;;;;5002468;28;19921;-72
2023/04/04 05:37:40;;;;;;;;;;;0.40;99.90;;;;;;5015901;28;19921;-75
2023/04/04 05:40:06;;;;;;;;;;;1.60;99.90;;;;;;4997293;28;19921;-74
2023/04/04 05:42:32;;;;;;;;;;;0.40;99.90;;;;;;4995230;28;19976;-77
2023/04/04 05:45:01;;;;;;;;;;;0.50;99.90;;;;;;5014070;28;19939;-73
2023/04/04 05:47:26;;;;;;;;;;;0.50;99.90;;;;;;5005640;28;19927;-77
2023/04/04 05:49:52;;;;;;;;;;;0.50;99.90;;;;;;5016100;28;20675;-80
2023/04/04 05:52:17;;;;;;;;;;;0.50;99.90;;;;;;5016085;28;19925;-74
2023/04/04 05:54:43;;;;;;;;;;;0.60;99.90;;;;;;5015510;28;19979;-73
2023/04/04 05:57:08;;;;;;;;;;;0.60;99.90;;;;;;5028950;28;19921;-73
2023/04/04 05:59:34;;;;;;;;;;;0.70;99.90;;;;;;5002666;28;19925;-86
2023/04/04 06:02:00;;;;;;;;;;;1.20;99.90;;;;;;5013297;28;19929;-74
2023/04/04 06:04:25;;;;;;;;;;;1.80;99.90;;;;;;5031320;28;19921;-77
2023/04/04 06:07:00;;;;;;;;;;;0.80;99.90;;;;;;5009490;28;19948;-78
2023/04/04 06:09:26;;;;;;;;;;;0.80;99.90;;;;;;5001952;28;19921;-73
2023/04/04 06:11:52;;;;;;;;;;;0.80;99.90;;;;;;5013479;28;19928;-75
2023/04/04 06:14:17;;;;;;;;;;;0.90;99.90;;;;;;5013284;28;19921;-81
2023/04/04 06:16:43;;;;;;;;;;;0.90;99.90;;;;;;5033512;28;20415;-74
2023/04/04 06:19:08;;;;;;;;;;;1.00;99.90;;;;;;5033551;28;19932;-77
2023/04/04 06:21:34;;;;;;;;;;;1.10;99.90;;;;;;5030766;28;19928;-74
2023/04/04 06:24:00;;;;;;;;;;;2.20;99.90;;;;;;4996368;28;19921;-76
2023/04/04 06:26:25;;;;;;;;;;;1.20;99.90;;;;;;4996073;28;19956;-76
2023/04/04 06:28:51;;;;;;;;;;;1.80;99.90;;;;;;5013363;28;20375;-75
2023/04/04 06:31:17;;;;;;;;;;;1.40;99.90;;;;;;5013417;28;19921;-76
2023/04/04 06:33:43;;;;;;;;;;;1.50;99.90;;;;;;4996471;28;19925;-75
2023/04/04 06:36:08;;;;;;;;;;;1.60;99.90;;;;;;4999524;28;19921;-73
2023/04/04 06:38:43;;;;;;;;;;;1.70;99.90;;;;;;5004352;28;19932;-73
2023/04/04 06:41:11;;;;;;;;;;;1.70;99.90;;;;;;5011509;28;20024;-73
2023/04/04 06:43:40;;;;;;;;;;;1.80;99.90;;;;;;4999616;28;19917;-73
2023/04/04 06:46:05;;;;;;;;;;;1.80;99.90;;;;;;5030640;28;19927;-73
2023/04/04 06:48:34;;;;;;;;;;;1.90;99.90;;;;;;5030538;28;19928;-73
2023/04/04 06:51:00;;;;;;;;;;;2.00;99.90;;;;;;5006949;28;19921;-73
2023/04/04 06:53:25;;;;;;;;;;;2.00;99.90;;;;;;5030284;28;20020;-74
2023/04/04 06:55:52;;;;;;;;;;;3.80;99.90;;;;;;5016623;28;19929;-74
2023/04/04 06:58:17;;;;;;;;;;;2.20;99.90;;;;;;5006463;28;19953;-74
2023/04/04 07:00:43;;;;;;;;;;;2.70;99.90;;;;;;5013184;28;20357;-73
2023/04/04 07:03:12;;;;;;;;;;;2.30;99.90;;;;;;5035665;28;19928;-74
2023/04/04 07:05:40;;;;;;;;;;;2.50;99.90;;;;;;5002111;28;19925;-72
2023/04/04 07:08:06;;;;;;;;;;;2.50;99.90;;;;;;5019721;28;19929;-74
2023/04/04 07:10:31;;;;;;;;;;;2.70;99.90;;;;;;5001336;28;20266;-72
2023/04/04 07:13:00;;;;;;;;;;;2.80;99.90;;;;;;5002402;28;19921;-73
2023/04/04 07:15:26;;;;;;;;;;;3.40;99.90;;;;;;5002788;28;20043;-73
2023/04/04 07:17:55;;;;;;;;;;;3.00;99.90;;;;;;5034904;28;20024;-73
2023/04/04 07:20:21;;;;;;;;;;;3.10;99.90;;;;;;5035279;28;20051;-74
2023/04/04 07:22:47;;;;;;;;;;;3.30;99.90;;;;;;5034824;28;20008;-73
2023/04/04 07:25:13;;;;;;;;;;;3.40;99.90;;;;;;5010638;28;19921;-72
2023/04/04 07:27:39;;;;;;;;;;;4.30;99.90;;;;;;5016739;28;19963;-73
2023/04/04 07:30:06;;;;;;;;;;;4.90;99.90;;;;;;5016857;28;19921;-73
2023/04/04 07:32:31;;;;;;;;;;;6.40;99.90;;;;;;4998675;28;19925;-72
2023/04/04 07:34:57;;;;;;;;;;;7.80;99.90;;;;;;5020404;28;19917;-74
2023/04/04 07:37:22;;;;;;;;;;;9.20;99.90;;;;;;4999613;28;19921;-74
2023/04/04 07:39:48;;;;;;;;;;;10.40;99.90;;;;;;4998274;28;19956;-73
2023/04/04 07:42:32;;;;;;;;;;;11.20;99.50;;;;;;4999079;28;20288;-72
2023/04/04 07:45:00;;;;;;;;;;;11.80;95.40;;;;;;5016477;28;19925;-72
2023/04/04 07:47:27;;;;;;;;;;;12.70;94.60;;;;;;5003521;28;19928;-73
2023/04/04 07:49:52;;;;;;;;;;;13.30;90.60;;;;;;5036177;28;20292;-72
2023/04/04 07:52:18;;;;;;;;;;;13.50;89.20;;;;;;5017884;28;19928;-72
2023/04/04 07:54:43;;;;;;;;;;;13.40;89.90;;;;;;5017382;28;19921;-72
2023/04/04 07:57:09;;;;;;;;;;;13.40;87.20;;;;;;5036158;28;19943;-72
2023/04/04 07:59:38;;;;;;;;;;;12.80;87.70;;;;;;5035847;28;19917;-73
2023/04/04 08:02:03;;;;;;;;;;;12.70;90.50;;;;;;5015796;28;20177;-77
2023/04/04 08:04:29;;;;;;;;;;;12.80;90.20;;;;;;5010934;28;19921;-72
2023/04/04 08:06:55;;;;;;;;;;;13.00;88.00;;;;;;4997874;28;19917;-73
2023/04/04 08:09:20;;;;;;;;;;;13.50;88.60;;;;;;4997958;28;19947;-73
2023/04/04 08:11:46;;;;;;;;;;;14.20;86.80;;;;;;4998671;28;20381;-72
2023/04/04 08:14:12;;;;;;;;;;;14.30;84.80;;;;;;4997494;28;20019;-73
2023/04/04 08:16:37;;;;;;;;;;;14.80;81.60;;;;;;4997958;28;19941;-73
2023/04/04 08:19:03;;;;;;;;;;;15.40;80.60;;;;;;5000475;28;19928;-73
2023/04/04 08:21:29;;;;;;;;;;;15.80;77.30;;;;;;5014708;28;19921;-72
2023/04/04 08:23:54;;;;;;;;;;;15.80;78.80;;;;;;4998094;28;19921;-72
2023/04/04 08:26:20;;;;;;;;;;;16.30;74.80;;;;;;4997677;28;19929;-73
2023/04/04 08:28:46;;;;;;;;;;;16.80;74.80;;;;;;5015152;28;19929;-72
2023/04/04 08:31:12;;;;;;;;;;;17.50;73.10;;;;;;4997971;28;19976;-73
2023/04/04 08:33:38;;;;;;;;;;;18.00;74.30;;;;;;4999217;28;19933;-72
2023/04/04 08:36:04;;;;;;;;;;;18.90;69.80;;;;;;4997164;28;19925;-72
2023/04/04 08:38:29;;;;;;;;;;;19.30;69.30;;;;;;5014846;28;20004;-72
2023/04/04 08:40:55;;;;;;;;;;;19.80;68.20;;;;;;4997786;28;19964;-73
2023/04/04 08:43:22;;;;;;;;;;;20.80;67.60;;;;;;4996825;28;19917;-74
2023/04/04 08:45:49;;;;;;;;;;;20.40;65.40;;;;;;4997692;28;19927;-72
2023/04/04 08:48:15;;;;;;;;;;;20.10;66.90;;;;;;5017194;28;20292;-73
2023/04/04 08:50:43;;;;;;;;;;;20.20;63.70;;;;;;4996619;28;19921;-73
2023/04/04 08:53:10;;;;;;;;;;;20.50;65.10;;;;;;5015104;28;19921;-72
2023/04/04 08:55:37;;;;;;;;;;;20.10;64.50;;;;;;4997177;28;19967;-73
2023/04/04 08:58:02;;;;;;;;;;;19.90;64.90;;;;;;4998381;28;19922;-73
2023/04/04 09:00:29;;;;;;;;;;;20.20;65.00;;;;;;5016767;28;19928;-73
2023/04/04 09:02:56;;;;;;;;;;;20.20;64.10;;;;;;5034517;28;19999;-73
2023/04/04 09:05:22;;;;;;;;;;;20.90;63.80;;;;;;5034138;28;19927;-73
2023/04/04 09:07:55;;;;;;;;;;;20.70;64.30;;;;;;5032611;28;19925;-73
2023/04/04 09:10:22;;;;;;;;;;;21.20;60.70;;;;;;5033467;28;19921;-73
2023/04/04 09:12:49;;;;;;;;;;;20.40;60.70;;;;;;5034711;28;19921;-73
2023/04/04 09:15:15;;;;;;;;;;;21.20;60.70;;;;;;5016348;28;20369;-73
2023/04/04 09:17:41;;;;;;;;;;;21.20;59.30;;;;;;5030104;28;20008;-73
2023/04/04 09:20:26;;;;;;;;;;;20.40;63.80;;;;;;5014725;28;19948;-73
2023/04/04 09:22:52;;;;;;;;;;;20.40;63.40;;;;;;4997033;28;20439;-72
2023/04/04 09:25:17;;;;;;;;;;;20.20;60.10;;;;;;4995717;28;19957;-73
2023/04/04 09:27:44;;;;;;;;;;;19.80;63.20;;;;;;5002199;28;19925;-73
2023/04/04 09:30:10;;;;;;;;;;;19.50;63.30;;;;;;5008301;28;19921;-72
2023/04/04 09:32:35;;;;;;;;;;;19.90;63.80;;;;;;4995737;28;19929;-73
2023/04/04 09:35:01;;;;;;;;;;;20.10;62.60;;;;;;5014630;28;19929;-72
2023/04/04 09:37:27;;;;;;;;;;;20.90;62.90;;;;;;5000283;28;20353;-73
2023/04/04 09:39:55;;;;;;;;;;;20.80;59.50;;;;;;5015448;28;19921;-73
2023/04/04 09:42:24;;;;;;;;;;;20.70;59.20;;;;;;5033612;28;20361;-73
2023/04/04 09:44:53;;;;;;;;;;;21.00;58.60;;;;;;5033970;28;19921;-73
2023/04/04 09:47:22;;;;;;;;;;;21.00;57.20;;;;;;5000080;28;20377;-73
2023/04/04 09:49:49;;;;;;;;;;;21.40;59.10;;;;;;4996413;28;19929;-73
2023/04/04 09:52:19;;;;;;;;;;;21.70;57.30;;;;;;4995751;28;20349;-73
2023/04/04 09:54:58;;;;;;;;;;;21.90;58.30;;;;;;5021466;28;19917;-73
2023/04/04 09:57:28;;;;;;;;;;;21.80;56.60;;;;;;5015399;28;19956;-73
2023/04/04 09:59:58;;;;;;;;;;;21.40;56.00;;;;;;5015452;28;20375;-75
2023/04/04 10:02:24;;;;;;;;;;;21.70;58.20;;;;;;5019173;28;19933;-74
2023/04/04 10:04:52;;;;;;;;;;;21.10;57.30;;;;;;4996477;28;19921;-74
2023/04/04 10:07:17;;;;;;;;;;;21.40;56.20;;;;;;5013165;28;19921;-74
2023/04/04 10:09:45;;;;;;;;;;;22.00;56.30;;;;;;4996253;28;19921;-73
2023/04/04 10:12:11;;;;;;;;;;;21.70;56.60;;;;;;5007806;28;20012;-72
2023/04/04 10:14:36;;;;;;;;;;;21.60;56.20;;;;;;5002763;28;20473;-74
2023/04/04 10:17:15;;;;;;;;;;;21.50;58.10;;;;;;5013909;28;20040;-74
2023/04/04 10:19:41;;;;;;;;;;;21.50;58.50;;;;;;5011070;28;19948;-74
2023/04/04 10:22:07;;;;;;;;;;;22.00;57.90;;;;;;4995800;28;19979;-72
2023/04/04 10:24:33;;;;;;;;;;;21.60;56.70;;;;;;5013323;28;19928;-74
2023/04/04 10:26:58;;;;;;;;;;;21.80;56.50;;;;;;4995864;28;19925;-74
2023/04/04 10:29:24;;;;;;;;;;;22.00;58.90;;;;;;5012825;28;20308;-74
2023/04/04 10:31:56;;;;;;;;;;;21.80;58.70;;;;;;5001669;28;20288;-72
2023/04/04 10:34:21;;;;;;;;;;;22.10;58.30;;;;;;4998048;28;19925;-73
2023/04/04 10:36:51;;;;;;;;;;;21.80;56.20;;;;;;5031316;28;20323;-75
2023/04/04 10:39:17;;;;;;;;;;;21.90;55.60;;;;;;4999174;28;20408;-75
2023/04/04 10:41:52;;;;;;;;;;;21.30;55.90;;;;;;4997429;28;19968;-74
2023/04/04 10:44:18;;;;;;;;;;;21.60;56.90;;;;;;4998747;28;19921;-74
2023/04/04 10:46:45;;;;;;;;;;;21.70;55.90;;;;;;4998517;28;19931;-74
2023/04/04 10:49:11;;;;;;;;;;;20.60;57.20;;;;;;5009570;28;20373;-74
2023/04/04 10:51:36;;;;;;;;;;;20.20;58.60;;;;;;4998619;28;19971;-75
2023/04/04 10:54:06;;;;;;;;;;;20.00;57.60;;;;;;5030037;28;19975;-75
2023/04/04 10:56:33;;;;;;;;;;;19.70;58.40;;;;;;5012148;28;19929;-72
2023/04/04 10:59:09;;;;;;;;;;;20.10;59.30;;;;;;5020825;28;20011;-73
2023/04/04 11:01:48;;;;;;;;;;;19.90;57.20;;;;;;5013814;28;20060;-73
2023/04/04 11:04:17;;;;;;;;;;;20.50;56.70;;;;;;5014958;28;20017;-73
2023/04/04 11:07:02;;;;;;;;;;;20.20;58.00;;;;;;5013124;28;19925;-74
2023/04/04 11:09:47;;;;;;;;;;;19.90;59.50;;;;;;5012998;28;19921;-72
2023/04/04 11:12:22;;;;;;;;;;;20.10;63.20;;;;;;5013017;28;19983;-72
2023/04/04 11:15:03;;;;;;;;;;;19.50;57.90;;;;;;5012835;28;19928;-73
2023/04/04 11:17:47;;;;;;;;;;;19.60;58.70;;;;;;5001606;28;19928;-73
2023/04/04 11:20:16;;;;;;;;;;;19.40;58.70;;;;;;5031410;28;19928;-72
2023/04/04 11:22:42;;;;;;;;;;;19.10;58.60;;;;;;5031490;28;19928;-72
2023/04/04 11:25:23;;;;;;;;;;;18.70;58.90;;;;;;5030503;28;20000;-72
2023/04/04 11:27:52;;;;;;;;;;;18.30;60.20;;;;;;5031791;28;20422;-73
2023/04/04 11:30:19;;;;;;;;;;;17.60;62.20;;;;;;5030823;28;19921;-73
2023/04/04 11:32:48;;;;;;;;;;;18.20;61.70;;;;;;5013610;28;19925;-72
2023/04/04 11:35:14;;;;;;;;;;;17.60;61.20;;;;;;5017276;28;19924;-74
2023/04/04 11:37:55;;;;;;;;;;;18.00;63.20;;;;;;5002802;28;19971;-74
2023/04/04 11:40:32;;;;;;;;;;;17.60;60.10;;;;;;5014674;28;19944;-74
2023/04/04 11:43:02;;;;;;;;;;;17.10;64.50;;;;;;5026474;28;19921;-74
2023/04/04 11:45:33;;;;;;;;;;;17.70;62.40;;;;;;5015684;28;19922;-73
2023/04/04 11:47:59;;;;;;;;;;;17.70;61.30;;;;;;5023148;28;19944;-73
2023/04/04 11:50:25;;;;;;;;;;;17.90;62.20;;;;;;4998421;28;19986;-73
2023/04/04 11:52:52;;;;;;;;;;;17.90;61.80;;;;;;5015719;28;20416;-73
2023/04/04 11:55:18;;;;;;;;;;;17.60;61.60;;;;;;5013927;28;19944;-74
2023/04/04 11:57:48;;;;;;;;;;;17.50;61.60;;;;;;5016715;28;19932;-73
2023/04/04 12:00:28;;;;;;;;;;;17.10;63.50;;;;;;5007272;28;19921;-73
2023/04/04 12:03:00;;;;;;;;;;;17.90;61.10;;;;;;5016779;28;20365;-72
2023/04/04 12:05:25;;;;;;;;;;;18.30;62.90;;;;;;5034392;28;20320;-74
2023/04/04 12:07:51;;;;;;;;;;;18.10;62.30;;;;;;5012665;28;19935;-73
2023/04/04 12:10:17;;;;;;;;;;;18.40;62.60;;;;;;5003521;28;19922;-72
2023/04/04 12:12:46;;;;;;;;;;;17.90;61.10;;;;;;5018255;28;20012;-73
2023/04/04 12:15:15;;;;;;;;;;;17.60;63.00;;;;;;5012277;28;19929;-73
2023/04/04 12:17:42;;;;;;;;;;;17.60;63.30;;;;;;5015906;28;19944;-73
2023/04/04 12:20:14;;;;;;;;;;;17.60;61.60;;;;;;5027955;28;19921;-74
2023/04/04 12:22:39;;;;;;;;;;;17.30;64.10;;;;;;5035379;28;20365;-73
2023/04/04 12:25:05;;;;;;;;;;;17.30;64.10;;;;;;5018103;28;19920;-73
2023/04/04 12:27:31;;;;;;;;;;;17.10;64.70;;;;;;5034594;28;20384;-73
2023/04/04 12:30:02;;;;;;;;;;;17.00;63.90;;;;;;5017566;28;20366;-73
2023/04/04 12:32:28;;;;;;;;;;;17.40;64.70;;;;;;5020792;28;19929;-73
2023/04/04 12:34:58;;;;;;;;;;;17.80;64.90;;;;;;5013002;28;19925;-73
2023/04/04 12:37:27;;;;;;;;;;;18.10;63.60;;;;;;5013168;28;20255;-73
2023/04/04 12:40:00;;;;;;;;;;;18.10;61.30;;;;;;5013362;28;19933;-73
2023/04/04 12:42:27;;;;;;;;;;;18.10;64.60;;;;;;5012531;28;20418;-73
2023/04/04 12:45:19;;;;;;;;;;;18.00;62.30;;;;;;5015035;28;19921;-73
2023/04/04 12:47:51;;;;;;;;;;;18.20;63.40;;;;;;5012469;28;19976;-73
2023/04/04 12:50:26;;;;;;;;;;;18.10;62.10;;;;;;4996804;28;19928;-73
2023/04/04 12:52:55;;;;;;;;;;;18.80;63.00;;;;;;4997766;28;19925;-73
2023/04/04 12:55:21;;;;;;;;;;;18.80;62.80;;;;;;4996759;28;20620;-73
2023/04/04 12:57:47;;;;;;;;;;;18.40;61.40;;;;;;5015313;28;20292;-73
2023/04/04 13:00:13;;;;;;;;;;;18.40;63.30;;;;;;5014143;28;20354;-73
2023/04/04 13:02:41;;;;;;;;;;;18.10;58.70;;;;;;5013927;28;20468;-73
2023/04/04 13:05:08;;;;;;;;;;;17.60;63.70;;;;;;4997464;28;20369;-73
2023/04/04 13:07:41;;;;;;;;;;;16.90;63.00;;;;;;5016591;28;20305;-74
2023/04/04 13:10:08;;;;;;;;;;;17.10;64.50;;;;;;5014808;28;19927;-73
2023/04/04 13:12:52;;;;;;;;;;;16.70;63.40;;;;;;5016462;28;20008;-74
2023/04/04 13:15:18;;;;;;;;;;;16.50;65.40;;;;;;5034628;28;20327;-72
2023/04/04 13:17:50;;;;;;;;;;;16.00;67.90;;;;;;5033596;28;20007;-73
2023/04/04 13:20:16;;;;;;;;;;;16.20;67.70;;;;;;5034608;28;20016;-73
2023/04/04 13:22:42;;;;;;;;;;;16.20;70.50;;;;;;5016281;28;19917;-73
2023/04/04 13:25:12;;;;;;;;;;;16.20;68.20;;;;;;5033913;28;20012;-76
2023/04/04 13:27:37;;;;;;;;;;;16.00;66.30;;;;;;5016229;28;20299;-74
2023/04/04 13:30:05;;;;;;;;;;;16.10;68.50;;;;;;5033433;28;19955;-74
2023/04/04 13:32:30;;;;;;;;;;;16.30;67.20;;;;;;5015333;28;19928;-73
2023/04/04 13:34:56;;;;;;;;;;;16.40;69.70;;;;;;5021176;28;20004;-73
2023/04/04 13:37:21;;;;;;;;;;;16.20;69.30;;;;;;5013294;28;19927;-72
2023/04/04 13:39:47;;;;;;;;;;;16.20;67.90;;;;;;5007220;28;19957;-72
2023/04/04 13:42:12;;;;;;;;;;;16.20;68.70;;;;;;4995785;28;20506;-72
2023/04/04 13:44:38;;;;;;;;;;;16.10;67.40;;;;;;5019422;28;20344;-72
2023/04/04 13:47:04;;;;;;;;;;;15.80;66.40;;;;;;5015894;28;20261;-71
2023/04/04 13:49:29;;;;;;;;;;;15.60;68.40;;;;;;5009594;28;20419;-72
2023/04/04 13:51:55;;;;;;;;;;;15.50;69.10;;;;;;4995025;28;20289;-71
2023/04/04 13:54:20;;;;;;;;;;;15.50;73.10;;;;;;5013301;28;20335;-72
2023/04/04 13:56:46;;;;;;;;;;;15.20;69.20;;;;;;5012264;28;19976;-72
2023/04/04 13:59:11;;;;;;;;;;;15.30;70.80;;;;;;5012697;28;20388;-73
2023/04/04 14:01:38;;;;;;;;;;;15.20;70.60;;;;;;5005218;28;20304;-75
2023/04/04 14:04:03;;;;;;;;;;;15.00;70.20;;;;;;4995952;28;20512;-75
2023/04/04 14:06:30;;;;;;;;;;;14.90;70.20;;;;;;5012304;28;19929;-76
2023/04/04 14:08:57;;;;;;;;;;;14.90;70.20;;;;;;5010264;28;19974;-75
2023/04/04 14:11:24;;;;;;;;;;;14.60;70.00;;;;;;4995467;28;19921;-75
2023/04/04 14:13:50;;;;;;;;;;;14.20;71.20;;;;;;5016613;28;19922;-77
2023/04/04 14:16:20;;;;;;;;;;;14.00;72.60;;;;;;5029010;28;19920;-78
2023/04/04 14:18:49;;;;;;;;;;;14.00;73.20;;;;;;5018619;28;19921;-74
2023/04/04 14:21:14;;;;;;;;;;;13.70;72.80;;;;;;4996441;28;19925;-74
2023/04/04 14:23:43;;;;;;;;;;;13.70;73.50;;;;;;5018446;28;20347;-73